Terminal Aerodrome Forecast
Issued by NWS

Home | Current Version | Previous Version | Text Only | Print | Product List | Glossary On
Versions: 1 2 3 4 5 6 7 8 9 10 11 12 13 14 15 16 17 18
000
FTUS41 KPBZ 231720
TAFFKL
TAF
KFKL 231720Z 2318/2418 14004KT P6SM SKC
     FM240700 16008KT P6SM VCSH BKN070 WS020/20040KT
     FM240900 17008KT 5SM -SHRA OVC040 WS020/22040KT
     FM241300 19010G18KT P6SM VCSH OVC035
     FM241500 20010G18KT P6SM BKN025
      AMD LTD TO CLD VIS AND WIND=

USA.gov is the U.S. government's official web portal to all federal, state and local government web resources and services.